Time;durP1;ratioP1;P1;durP2;ratioP2;P2;SDS_P1;SDS_P2;PMS_P1;PMS_P2;Temp;Humidity;BMP_temperature;BMP_pressure;BME280_temperature;BME280_humidity;BME280_pressure;Samples;Min_cycle;Max_cycle;Signal;HPM_P1;HPM_P2
2022/12/12 00:01:15;;;;;;;36.05;19.05;;;;;;;-0.20;100.00;101189.16;5019338;28;20479;-73
2022/12/12 00:03:41;;;;;;;40.92;19.00;;;;;;;-0.24;100.00;101197.59;5023069;28;20061;-75
2022/12/12 00:06:06;;;;;;;36.28;17.92;;;;;;;-0.18;100.00;101189.03;5020287;28;20124;-75
2022/12/12 00:08:31;;;;;;;46.28;21.00;;;;;;;-0.25;100.00;101185.97;5022235;28;20025;-75
2022/12/12 00:10:57;;;;;;;37.63;18.08;;;;;;;-0.20;100.00;101191.00;5023572;28;20025;-75
2022/12/12 00:13:22;;;;;;;35.17;19.67;;;;;;;-0.32;100.00;101191.97;5016218;28;20472;-76
2022/12/12 00:15:48;;;;;;;34.20;19.15;;;;;;;-0.36;100.00;101198.56;5022339;28;20142;-75
2022/12/12 00:18:15;;;;;;;35.30;20.58;;;;;;;-0.30;100.00;101188.16;5020402;28;20032;-75
2022/12/12 00:20:40;;;;;;;33.35;17.40;;;;;;;-0.45;100.00;101201.97;5023979;28;20483;-75
2022/12/12 00:23:06;;;;;;;35.85;19.15;;;;;;;-0.53;100.00;101195.47;5020338;28;20110;-75
2022/12/12 00:25:31;;;;;;;33.03;18.25;;;;;;;-0.62;100.00;101197.88;5021898;28;20401;-75
2022/12/12 00:27:56;;;;;;;44.60;19.88;;;;;;;-0.68;100.00;101192.13;5019905;28;20503;-74
2022/12/12 00:30:22;;;;;;;37.05;19.45;;;;;;;-0.74;100.00;101197.97;5030041;28;20037;-74
2022/12/12 00:32:48;;;;;;;43.47;20.25;;;;;;;-0.81;100.00;101196.72;5019299;28;20059;-76
2022/12/12 00:35:15;;;;;;;36.53;19.40;;;;;;;-0.84;100.00;101194.28;5022997;28;20121;-75
2022/12/12 00:37:41;;;;;;;35.28;19.20;;;;;;;-0.89;100.00;101196.44;5026469;28;20131;-76
2022/12/12 00:40:07;;;;;;;39.80;19.67;;;;;;;-0.92;100.00;101199.34;5019177;28;20069;-76
2022/12/12 00:42:32;;;;;;;40.95;20.10;;;;;;;-0.97;100.00;101201.53;5018814;28;20029;-74
2022/12/12 00:44:58;;;;;;;43.60;20.38;;;;;;;-1.02;100.00;101201.03;5022312;28;20393;-74
2022/12/12 00:47:23;;;;;;;38.63;19.13;;;;;;;-1.06;100.00;101198.69;5022504;28;20241;-74
2022/12/12 00:49:49;;;;;;;35.88;20.23;;;;;;;-1.06;100.00;101196.00;5025870;28;20044;-74
2022/12/12 00:52:14;;;;;;;36.55;19.48;;;;;;;-1.15;100.00;101196.69;5020829;28;20523;-75
2022/12/12 00:54:41;;;;;;;37.35;20.33;;;;;;;-1.18;100.00;101191.56;5027600;28;20088;-75
2022/12/12 00:57:06;;;;;;;43.70;21.95;;;;;;;-1.14;100.00;101190.34;5024125;28;20156;-73
2022/12/12 00:59:32;;;;;;;39.67;20.85;;;;;;;-1.17;100.00;101188.75;5027494;28;20603;-75
2022/12/12 01:01:57;;;;;;;39.30;20.75;;;;;;;-1.11;100.00;101188.28;5019613;28;20071;-75
2022/12/12 01:04:23;;;;;;;37.08;19.65;;;;;;;-1.13;100.00;101184.84;5020986;28;20049;-75
2022/12/12 01:06:48;;;;;;;36.78;20.60;;;;;;;-1.19;100.00;101195.22;5029735;28;20029;-75
2022/12/12 01:09:13;;;;;;;35.92;20.35;;;;;;;-1.24;100.00;101190.16;5019518;28;20508;-75
2022/12/12 01:11:40;;;;;;;41.75;19.25;;;;;;;-1.32;100.00;101189.03;5020736;28;20042;-75
2022/12/12 01:14:06;;;;;;;45.38;20.95;;;;;;;-1.31;100.00;101188.03;5022474;28;20518;-74
2022/12/12 01:16:32;;;;;;;42.35;21.55;;;;;;;-1.37;100.00;101197.44;5022107;28;20034;-76
2022/12/12 01:18:58;;;;;;;40.83;20.55;;;;;;;-1.36;100.00;101203.63;5022861;28;20417;-77
2022/12/12 01:21:23;;;;;;;46.03;21.88;;;;;;;-1.36;100.00;101209.00;5021658;28;20392;-76
2022/12/12 01:23:49;;;;;;;36.78;20.35;;;;;;;-1.42;100.00;101202.28;5022545;28;20033;-74
2022/12/12 01:26:18;;;;;;;43.20;21.77;;;;;;;-1.42;100.00;101204.97;5016104;28;20116;-76
2022/12/12 01:28:44;;;;;;;41.17;21.23;;;;;;;-1.47;100.00;101209.81;5017999;28;20495;-75
2022/12/12 01:31:10;;;;;;;37.28;19.75;;;;;;;-1.49;100.00;101219.81;5020709;28;20132;-75
2022/12/12 01:33:36;;;;;;;37.25;16.90;;;;;;;-1.51;100.00;101212.84;5021257;28;20075;-75
2022/12/12 01:36:01;;;;;;;43.55;20.52;;;;;;;-1.54;100.00;101216.63;5025243;28;20034;-75
2022/12/12 01:38:26;;;;;;;38.97;19.92;;;;;;;-1.56;100.00;101215.84;5013573;28;20077;-75
2022/12/12 01:40:53;;;;;;;40.30;19.58;;;;;;;-1.59;100.00;101221.47;5017152;28;20036;-74
2022/12/12 01:43:21;;;;;;;33.83;17.63;;;;;;;-1.65;100.00;101216.53;5024345;28;20020;-75
2022/12/12 01:45:58;;;;;;;36.55;19.30;;;;;;;-1.67;100.00;101223.00;5018931;28;20052;-75
2022/12/12 01:48:29;;;;;;;44.35;21.10;;;;;;;-1.69;100.00;101220.41;5027689;28;20424;-75
2022/12/12 01:50:58;;;;;;;41.53;20.70;;;;;;;-1.70;100.00;101226.75;5020805;28;20037;-75
2022/12/12 01:53:26;;;;;;;44.15;21.38;;;;;;;-1.72;100.00;101230.50;5019778;28;20340;-74
2022/12/12 01:55:52;;;;;;;39.53;19.80;;;;;;;-1.73;100.00;101234.13;5023048;28;20039;-75
2022/12/12 01:58:19;;;;;;;40.05;22.33;;;;;;;-1.78;100.00;101239.84;5025137;28;20052;-75
2022/12/12 02:00:44;;;;;;;41.80;21.87;;;;;;;-1.81;100.00;101242.78;5023365;28;20033;-76
2022/12/12 02:03:10;;;;;;;43.25;22.38;;;;;;;-1.72;100.00;101239.41;5022784;28;20488;-74
2022/12/12 02:05:42;;;;;;;47.83;22.60;;;;;;;-1.68;100.00;101240.91;5021710;28;20032;-75
2022/12/12 02:08:09;;;;;;;45.47;22.90;;;;;;;-1.59;100.00;101242.06;5023070;28;20440;-75
2022/12/12 02:10:35;;;;;;;48.95;24.15;;;;;;;-1.58;100.00;101247.34;5024662;28;20444;-74
2022/12/12 02:13:12;;;;;;;45.08;23.10;;;;;;;-1.59;100.00;101245.63;5022160;28;20057;-74
2022/12/12 02:15:47;;;;;;;45.85;23.55;;;;;;;-1.60;100.00;101249.28;5023885;28;20573;-74
2022/12/12 02:18:43;;;;;;;45.30;22.25;;;;;;;-1.63;100.00;101244.13;5026720;28;20430;-74
2022/12/12 02:21:24;;;;;;;50.72;24.25;;;;;;;-1.61;100.00;101255.59;5027579;28;20030;-74
2022/12/12 02:24:03;;;;;;;51.90;23.15;;;;;;;-1.65;100.00;101254.13;5018337;28;20270;-74
2022/12/12 02:26:46;;;;;;;44.13;21.40;;;;;;;-1.53;100.00;101255.06;5019161;28;20488;-74
2022/12/12 02:29:25;;;;;;;49.88;23.52;;;;;;;-1.56;100.00;101249.91;5022634;28;20074;-74
2022/12/12 02:32:25;;;;;;;48.53;22.98;;;;;;;-1.63;100.00;101265.59;5023955;28;20395;-73
2022/12/12 02:35:14;;;;;;;51.25;21.67;;;;;;;-1.53;100.00;101255.91;4992875;28;20061;-73
2022/12/12 02:38:01;;;;;;;52.58;24.95;;;;;;;-1.59;100.00;101253.69;5029044;28;20541;-73
2022/12/12 02:41:11;;;;;;;49.88;23.23;;;;;;;-1.67;100.00;101257.88;5019951;28;20033;-73
2022/12/12 02:43:51;;;;;;;48.40;23.13;;;;;;;-1.69;100.00;101259.81;5020343;28;20029;-74
2022/12/12 02:46:36;;;;;;;53.63;23.85;;;;;;;-1.67;100.00;101260.56;5017938;28;20034;-73
2022/12/12 02:49:10;;;;;;;47.72;22.33;;;;;;;-1.68;100.00;101259.69;5020367;28;20365;-73
2022/12/12 02:51:37;;;;;;;47.00;22.98;;;;;;;-1.70;100.00;101266.16;5024146;28;20029;-74
2022/12/12 02:54:04;;;;;;;50.80;24.33;;;;;;;-1.79;100.00;101264.09;5019263;28;20037;-74
2022/12/12 02:56:44;;;;;;;;;;;;;;;-1.79;100.00;101264.97;5018021;28;20045;-74
2022/12/12 02:59:16;;;;;;;45.88;23.58;;;;;;;-1.88;100.00;101257.56;5021294;28;20411;-73
2022/12/12 03:01:59;;;;;;;48.83;24.35;;;;;;;-1.90;100.00;101267.56;5022992;28;20033;-74
2022/12/12 03:07:46;;;;;;;49.33;22.13;;;;;;;-1.99;100.00;101260.16;5021053;28;20072;-74
2022/12/12 03:10:46;;;;;;;47.75;23.55;;;;;;;-1.94;100.00;101271.44;5020032;28;20034;-73
2022/12/12 03:13:33;;;;;;;50.03;23.42;;;;;;;-1.99;100.00;101265.53;5023207;28;20030;-73
2022/12/12 03:16:01;;;;;;;53.55;23.73;;;;;;;-2.04;100.00;101267.66;5018309;28;20044;-74
2022/12/12 03:18:48;;;;;;;50.80;23.92;;;;;;;-2.12;100.00;101262.00;5021982;28;20118;-74
2022/12/12 03:21:24;;;;;;;51.53;23.80;;;;;;;-2.08;100.00;101258.16;5018613;28;20048;-73
2022/12/12 03:23:55;;;;;;;44.53;23.48;;;;;;;-2.12;100.00;101263.81;5020303;28;20063;-73
2022/12/12 03:26:29;;;;;;;52.97;24.88;;;;;;;-2.12;100.00;101261.13;5014902;28;20029;-73
2022/12/12 03:29:08;;;;;;;45.85;22.98;;;;;;;-2.17;100.00;101263.28;5019502;28;20040;-73
2022/12/12 03:31:37;;;;;;;50.15;23.42;;;;;;;-2.17;100.00;101274.88;5020434;28;20033;-73
2022/12/12 03:34:12;;;;;;;49.17;23.20;;;;;;;-2.15;100.00;101266.72;5020154;28;20021;-74
2022/12/12 03:36:47;;;;;;;52.35;23.40;;;;;;;-2.15;100.00;101262.19;5020309;28;20165;-73
2022/12/12 03:39:38;;;;;;;53.85;23.95;;;;;;;-2.18;100.00;101266.91;5019125;28;20033;-73
2022/12/12 03:42:11;;;;;;;52.65;22.30;;;;;;;-2.12;100.00;101267.38;5017674;28;20029;-73
2022/12/12 03:44:48;;;;;;;48.40;23.38;;;;;;;-2.15;100.00;101261.34;5020486;28;20052;-74
2022/12/12 03:47:27;;;;;;;46.72;22.75;;;;;;;-2.18;100.00;101261.56;5018255;28;20489;-74
2022/12/12 03:50:14;;;;;;;50.05;24.13;;;;;;;-2.22;100.00;101254.69;5024275;28;20044;-71
2022/12/12 03:53:08;;;;;;;47.13;20.42;;;;;;;-2.23;100.00;101266.38;5019517;28;20097;-72
2022/12/12 03:55:46;;;;;;;47.95;22.25;;;;;;;-2.27;100.00;101260.38;5010577;28;20046;-74
2022/12/12 03:58:19;;;;;;;46.28;21.27;;;;;;;-2.32;100.00;101253.59;5017729;28;20056;-73
2022/12/12 04:00:50;;;;;;;50.08;21.45;;;;;;;-2.37;100.00;101256.59;5019088;28;20052;-72
2022/12/12 04:03:23;;;;;;;48.28;21.73;;;;;;;-2.34;100.00;101259.09;5020779;28;20153;-73
2022/12/12 04:14:53;;;;;;;45.60;21.77;;;;;;;-2.43;100.00;101265.06;5017356;28;20080;-73
2022/12/12 04:17:28;;;;;;;43.03;21.27;;;;;;;-2.43;100.00;101262.41;5025031;28;20468;-73
2022/12/12 04:23:15;;;;;;;44.20;21.98;;;;;;;-2.38;100.00;101267.44;5024910;28;20040;-73
2022/12/12 04:28:32;;;;;;;46.10;20.25;;;;;;;-2.38;100.00;101270.97;5018226;28;20562;-72
2022/12/12 04:31:02;;;;;;;55.80;22.70;;;;;;;-2.36;100.00;101277.09;5019957;28;20084;-73
2022/12/12 04:33:39;;;;;;;44.55;20.48;;;;;;;-2.41;100.00;101270.34;5020811;28;20465;-73
2022/12/12 04:36:08;;;;;;;45.03;21.73;;;;;;;-2.40;100.00;101280.97;5022630;28;20594;-72
2022/12/12 04:38:36;;;;;;;43.22;20.73;;;;;;;-2.45;100.00;101275.06;5022469;28;20079;-72
2022/12/12 04:41:03;;;;;;;40.40;20.63;;;;;;;-2.47;100.00;101270.75;5019953;28;20040;-72
2022/12/12 04:43:34;;;;;;;44.25;20.90;;;;;;;-2.50;100.00;101279.88;5015604;28;20460;-73
2022/12/12 04:46:05;;;;;;;47.50;21.80;;;;;;;-2.53;100.00;101282.75;5025893;28;20461;-72
2022/12/12 04:48:41;;;;;;;44.92;21.15;;;;;;;-2.55;100.00;101281.13;5016652;28;20066;-72
2022/12/12 04:51:09;;;;;;;44.50;20.80;;;;;;;-2.49;100.00;101278.03;5021120;28;20104;-73
2022/12/12 04:53:42;;;;;;;49.85;22.23;;;;;;;-2.51;100.00;101269.25;5021501;28;20475;-73
2022/12/12 04:56:12;;;;;;;39.80;19.98;;;;;;;-2.52;100.00;101271.06;5017320;28;20030;-73
2022/12/12 04:58:39;;;;;;;47.15;20.23;;;;;;;-2.58;100.00;101268.78;5014013;28;20026;-72
2022/12/12 05:01:07;;;;;;;;;;;;;;;-2.63;100.00;101270.94;5020957;28;20077;-72
2022/12/12 05:03:50;;;;;;;48.35;21.88;;;;;;;-2.64;100.00;101276.38;5019237;28;20024;-73
2022/12/12 05:06:27;;;;;;;42.88;20.27;;;;;;;-2.73;100.00;101272.50;5026585;28;20041;-73
2022/12/12 05:08:56;;;;;;;43.40;18.30;;;;;;;-2.75;100.00;101271.75;5007370;28;20083;-73
2022/12/12 05:11:22;;;;;;;43.15;21.95;;;;;;;-2.75;100.00;101273.56;5013010;28;20398;-72
2022/12/12 05:13:49;;;;;;;40.20;20.10;;;;;;;-2.81;100.00;101272.19;5017779;28;20026;-72
2022/12/12 05:16:24;;;;;;;;;;;;;;;-2.79;100.00;101275.59;5022880;28;20041;-72
2022/12/12 05:18:50;;;;;;;41.10;19.67;;;;;;;-2.83;100.00;101281.28;5024342;28;20441;-72
2022/12/12 05:21:15;;;;;;;36.78;16.25;;;;;;;-2.86;100.00;101286.81;5023559;28;20026;-71
2022/12/12 05:23:41;;;;;;;46.67;21.38;;;;;;;-2.89;100.00;101287.88;5020341;28;20029;-70
2022/12/12 05:26:27;;;;;;;38.85;19.17;;;;;;;-3.00;100.00;101294.94;5024086;28;20108;-70
2022/12/12 05:28:53;;;;;;;43.42;20.33;;;;;;;-3.02;100.00;101292.34;5025371;28;20044;-72
2022/12/12 05:31:18;;;;;;;40.03;20.08;;;;;;;-3.04;100.00;101294.28;5014437;28;20034;-72
2022/12/12 05:33:44;;;;;;;42.25;20.83;;;;;;;-3.07;100.00;101286.44;5024437;28;20022;-72
2022/12/12 05:36:10;;;;;;;50.13;21.33;;;;;;;-3.08;100.00;101294.56;5022638;28;20045;-71
2022/12/12 05:38:36;;;;;;;50.38;23.17;;;;;;;-3.02;100.00;101295.03;5019946;28;20034;-72
2022/12/12 05:41:02;;;;;;;40.83;19.50;;;;;;;-3.01;100.00;101286.03;5020537;28;20040;-71
2022/12/12 05:43:27;;;;;;;48.08;20.30;;;;;;;-3.03;100.00;101298.69;5020233;28;20033;-72
2022/12/12 05:45:52;;;;;;;39.80;17.48;;;;;;;-2.98;100.00;101301.03;5022352;28;20021;-73
2022/12/12 05:48:18;;;;;;;46.55;20.90;;;;;;;-2.88;100.00;101302.16;5024625;28;20556;-72
2022/12/12 05:50:44;;;;;;;41.67;20.13;;;;;;;-2.88;100.00;101303.03;5024698;28;20021;-72
2022/12/12 05:53:10;;;;;;;43.72;20.73;;;;;;;-2.87;100.00;101304.75;5021423;28;20037;-73
2022/12/12 05:55:35;;;;;;;42.80;20.63;;;;;;;-2.80;100.00;101306.03;5018991;28;20030;-72
2022/12/12 05:58:01;;;;;;;46.50;20.85;;;;;;;-2.84;100.00;101309.88;5025352;28;20036;-71
2022/12/12 06:00:27;;;;;;;45.67;20.23;;;;;;;-2.79;100.00;101306.91;5020653;28;20477;-71
2022/12/12 06:02:52;;;;;;;41.22;20.55;;;;;;;-2.72;100.00;101301.06;5026560;28;20038;-72
2022/12/12 06:05:17;;;;;;;44.05;21.60;;;;;;;-2.64;100.00;101303.19;5024097;28;20030;-72
2022/12/12 06:07:43;;;;;;;45.03;20.00;;;;;;;-2.67;100.00;101308.78;5022017;28;20030;-72
2022/12/12 06:10:08;;;;;;;45.88;20.33;;;;;;;-2.67;100.00;101306.94;5021494;28;20116;-71
2022/12/12 06:12:34;;;;;;;42.15;21.05;;;;;;;-2.64;100.00;101304.06;5020174;28;20073;-72
2022/12/12 06:14:59;;;;;;;47.25;21.42;;;;;;;-2.73;100.00;101306.50;5021315;28;20456;-71
2022/12/12 06:17:24;;;;;;;48.25;22.42;;;;;;;-2.77;100.00;101313.03;5025303;28;20114;-71
2022/12/12 06:19:51;;;;;;;45.70;21.50;;;;;;;-2.77;100.00;101316.56;5022878;28;20655;-71
2022/12/12 06:22:16;;;;;;;37.40;17.42;;;;;;;-2.80;100.00;101310.53;5025942;28;20037;-71
2022/12/12 06:24:42;;;;;;;46.95;21.45;;;;;;;-2.75;100.00;101316.44;5018468;28;20454;-71
2022/12/12 06:27:07;;;;;;;42.55;20.83;;;;;;;-2.78;100.00;101314.00;5016516;28;20516;-71
2022/12/12 06:29:33;;;;;;;42.60;20.05;;;;;;;-2.80;100.00;101315.88;5020976;28;20477;-71
2022/12/12 06:31:58;;;;;;;44.45;22.05;;;;;;;-2.80;100.00;101315.88;5019866;28;20491;-71
2022/12/12 06:34:23;;;;;;;45.17;20.15;;;;;;;-2.81;100.00;101320.41;5019297;28;20013;-70
2022/12/12 06:36:49;;;;;;;43.65;20.27;;;;;;;-2.76;100.00;101322.78;5019779;28;20038;-71
2022/12/12 06:39:14;;;;;;;47.85;22.45;;;;;;;-2.72;100.00;101335.03;5019934;28;20498;-70
2022/12/12 06:41:40;;;;;;;50.45;22.80;;;;;;;-2.71;100.00;101326.00;5021712;28;20030;-70
2022/12/12 06:44:05;;;;;;;49.20;21.80;;;;;;;-2.81;100.00;101328.44;5015930;28;20025;-71
2022/12/12 06:46:31;;;;;;;50.20;21.35;;;;;;;-2.91;100.00;101335.38;5017472;28;20060;-71
2022/12/12 06:48:56;;;;;;;43.47;20.58;;;;;;;-2.91;100.00;101329.13;5018151;28;20026;-71
2022/12/12 06:51:35;;;;;;;46.35;21.20;;;;;;;-2.98;100.00;101336.75;5018273;28;20101;-70
2022/12/12 06:54:00;;;;;;;44.85;21.65;;;;;;;-2.94;100.00;101334.72;5011337;28;20025;-70
2022/12/12 06:56:26;;;;;;;46.47;21.88;;;;;;;-2.96;100.00;101336.63;5019115;28;20048;-70
2022/12/12 06:58:53;;;;;;;45.90;21.77;;;;;;;-3.00;100.00;101340.47;5019049;28;20468;-70
2022/12/12 07:01:20;;;;;;;37.38;16.77;;;;;;;-3.00;100.00;101349.34;5017628;28;20025;-70
2022/12/12 07:03:48;;;;;;;45.90;21.52;;;;;;;-3.04;100.00;101338.94;5019720;28;20034;-71
2022/12/12 07:06:14;;;;;;;41.17;20.35;;;;;;;-3.07;100.00;101349.84;5017928;28;20552;-71
2022/12/12 07:08:40;;;;;;;43.22;20.38;;;;;;;-3.09;100.00;101336.59;5024377;28;20369;-71
2022/12/12 07:11:19;;;;;;;46.75;20.42;;;;;;;-3.07;100.00;101349.84;5015552;28;20037;-71
2022/12/12 07:13:45;;;;;;;49.90;22.45;;;;;;;-3.07;100.00;101348.03;5032589;28;20025;-71
2022/12/12 07:16:10;;;;;;;50.67;20.95;;;;;;;-3.00;100.00;101349.34;5011351;28;20511;-70
2022/12/12 07:18:36;;;;;;;46.53;19.90;;;;;;;-3.00;100.00;101351.19;5015700;28;20029;-70
2022/12/12 07:21:04;;;;;;;45.45;20.52;;;;;;;-3.09;100.00;101357.13;5017911;28;20039;-70
2022/12/12 07:23:30;;;;;;;46.72;22.60;;;;;;;-3.07;100.00;101355.22;5018206;28;20033;-70
2022/12/12 07:25:55;;;;;;;44.28;21.23;;;;;;;-3.14;100.00;101359.25;5017580;28;20473;-70
2022/12/12 07:28:21;;;;;;;46.40;20.75;;;;;;;-3.21;100.00;101353.41;5013678;28;20025;-70
2022/12/12 07:30:47;;;;;;;45.88;20.60;;;;;;;-3.22;100.00;101358.91;5024151;28;20095;-71
2022/12/12 07:33:15;;;;;;;41.27;20.03;;;;;;;-3.23;100.00;101363.38;5020129;28;20080;-70
2022/12/12 07:35:41;;;;;;;44.17;19.98;;;;;;;-3.16;100.00;101356.66;5021198;28;20025;-71
2022/12/12 07:38:06;;;;;;;40.15;20.80;;;;;;;-3.14;100.00;101364.59;5022953;28;20044;-70
2022/12/12 07:40:32;;;;;;;44.42;21.17;;;;;;;-3.22;100.00;101362.41;5014213;28;20447;-70
2022/12/12 07:42:58;;;;;;;53.75;21.98;;;;;;;-3.20;100.00;101371.22;5015215;28;20040;-69
2022/12/12 07:45:24;;;;;;;41.35;20.70;;;;;;;-3.22;100.00;101373.13;5017301;28;20026;-69
2022/12/12 07:47:50;;;;;;;44.42;22.90;;;;;;;-3.15;100.00;101377.13;5014687;28;20047;-71
2022/12/12 07:50:16;;;;;;;44.78;21.92;;;;;;;-3.15;100.00;101373.59;5015481;28;20034;-68
2022/12/12 07:52:41;;;;;;;48.30;20.88;;;;;;;-3.14;100.00;101384.22;5015344;28;20544;-70
2022/12/12 07:55:07;;;;;;;48.13;20.73;;;;;;;-3.17;100.00;101381.72;5016919;28;20026;-69
2022/12/12 07:57:32;;;;;;;44.75;20.42;;;;;;;-3.20;100.00;101387.28;5011322;28;20582;-69
2022/12/12 07:59:58;;;;;;;42.63;22.20;;;;;;;-3.19;100.00;101390.81;5017810;28;20040;-69
2022/12/12 08:02:24;;;;;;;42.15;20.15;;;;;;;-3.13;100.00;101391.28;5017772;28;20477;-69
2022/12/12 08:04:49;;;;;;;43.00;21.40;;;;;;;-3.17;100.00;101405.84;5017152;28;20033;-69
2022/12/12 08:07:14;;;;;;;43.72;21.35;;;;;;;-3.20;100.00;101402.50;5017727;28;20025;-69
2022/12/12 08:09:40;;;;;;;51.25;22.23;;;;;;;-3.15;100.00;101401.22;5016744;28;20026;-69
2022/12/12 08:12:05;;;;;;;44.17;21.88;;;;;;;-3.11;100.00;101401.91;5016232;28;20047;-69
2022/12/12 08:14:31;;;;;;;55.78;22.10;;;;;;;-3.00;100.00;101399.41;5018575;28;20024;-69
2022/12/12 08:16:57;;;;;;;46.65;22.13;;;;;;;-2.98;100.00;101405.53;5018258;28;20034;-69
2022/12/12 08:19:22;;;;;;;46.65;21.40;;;;;;;-3.02;100.00;101401.31;5006637;28;20135;-69
2022/12/12 08:21:47;;;;;;;49.08;21.83;;;;;;;-3.04;100.00;101403.25;5011005;28;20021;-69
2022/12/12 08:24:15;;;;;;;47.60;21.42;;;;;;;-3.07;100.00;101404.28;5007841;28;20053;-70
2022/12/12 08:26:41;;;;;;;41.40;20.70;;;;;;;-3.12;100.00;101408.22;5015993;28;20061;-69
2022/12/12 08:29:07;;;;;;;45.73;21.40;;;;;;;-3.08;100.00;101412.41;5020274;28;20026;-69
2022/12/12 08:31:32;;;;;;;44.28;21.13;;;;;;;-2.95;100.00;101419.56;5017062;28;20297;-69
2022/12/12 08:33:59;;;;;;;50.22;21.85;;;;;;;-2.96;100.00;101419.66;5015829;28;20473;-69
2022/12/12 08:36:31;;;;;;;44.08;20.75;;;;;;;-3.02;100.00;101418.25;5015119;28;20038;-69
2022/12/12 08:39:00;;;;;;;46.88;20.88;;;;;;;-3.00;100.00;101418.16;5014790;28;20034;-69
2022/12/12 08:41:25;;;;;;;43.05;20.58;;;;;;;-2.97;100.00;101423.31;5019427;28;20158;-70
2022/12/12 08:43:51;;;;;;;44.42;20.17;;;;;;;-2.97;100.00;101426.88;5019120;28;20444;-69
2022/12/12 08:46:18;;;;;;;52.78;22.77;;;;;;;-2.92;100.00;101423.88;5011174;28;20058;-70
2022/12/12 08:48:43;;;;;;;;;;;;;;;-2.89;100.00;101421.03;5022646;28;20040;-69
2022/12/12 08:51:09;;;;;;;41.55;20.95;;;;;;;-2.82;100.00;101431.25;5014624;28;19913;-69
2022/12/12 08:53:34;;;;;;;42.08;22.02;;;;;;;-2.77;100.00;101426.47;5016507;28;20022;-70
2022/12/12 08:56:00;;;;;;;49.05;22.92;;;;;;;-2.72;100.00;101432.38;5020697;28;20090;-70
2022/12/12 08:58:25;;;;;;;45.97;21.52;;;;;;;-2.70;100.00;101435.81;5015846;28;20029;-70
2022/12/12 09:00:51;;;;;;;35.80;16.60;;;;;;;-2.60;100.00;101434.25;5012513;28;20459;-70
2022/12/12 09:03:19;;;;;;;43.58;20.35;;;;;;;-2.54;100.00;101430.28;5014767;28;20026;-70
2022/12/12 09:05:45;;;;;;;50.50;21.70;;;;;;;-2.59;100.00;101432.41;5022751;28;20029;-70
2022/12/12 09:08:12;;;;;;;45.08;22.80;;;;;;;-2.57;100.00;101425.16;5017538;28;20486;-70
2022/12/12 09:10:38;;;;;;;39.75;21.23;;;;;;;-2.55;100.00;101426.78;5021980;28;20057;-72
2022/12/12 09:13:06;;;;;;;45.75;22.38;;;;;;;-2.58;100.00;101418.91;5024552;28;20029;-72
2022/12/12 09:15:35;;;;;;;41.28;21.50;;;;;;;-2.55;100.00;101432.13;5017974;28;20044;-71
2022/12/12 09:18:00;;;;;;;44.67;20.73;;;;;;;-2.47;100.00;101448.56;5022514;28;20072;-69
2022/12/12 09:20:26;;;;;;;43.55;22.65;;;;;;;-2.38;100.00;101434.56;5021471;28;20057;-72
2022/12/12 09:22:51;;;;;;;46.30;20.85;;;;;;;-2.35;100.00;101431.66;5022389;28;20498;-72
2022/12/12 09:25:18;;;;;;;40.05;19.48;;;;;;;-2.37;100.00;101425.56;5020237;28;20022;-72
2022/12/12 09:27:43;;;;;;;39.60;17.80;;;;;;;-2.35;100.00;101430.81;5026777;28;20021;-72
2022/12/12 09:30:09;;;;;;;37.58;19.42;;;;;;;-2.37;100.00;101419.31;5023681;28;20400;-72
2022/12/12 09:32:35;;;;;;;45.35;19.83;;;;;;;-2.37;100.00;101422.88;5019853;28;20652;-71
2022/12/12 09:35:00;;;;;;;40.08;19.02;;;;;;;-2.33;100.00;101429.75;5017552;28;20381;-70
2022/12/12 09:37:27;;;;;;;48.42;20.60;;;;;;;-2.31;100.00;101425.16;5022967;28;20040;-72
2022/12/12 09:39:52;;;;;;;41.53;20.73;;;;;;;-2.20;100.00;101429.81;5021450;28;20029;-72
2022/12/12 09:42:30;;;;;;;41.00;19.70;;;;;;;-2.16;100.00;101423.25;5021077;28;20033;-72
2022/12/12 09:45:00;;;;;;;44.53;21.75;;;;;;;-2.14;100.00;101424.03;5016780;28;20022;-72
2022/12/12 09:47:41;;;;;;;43.90;21.67;;;;;;;-2.19;100.00;101426.16;5020560;28;20046;-73
2022/12/12 09:50:17;;;;;;;43.65;19.83;;;;;;;-2.09;100.00;101422.75;5019902;28;20056;-72
2022/12/12 09:52:43;;;;;;;38.88;19.55;;;;;;;-2.08;100.00;101420.94;5021548;28;20033;-73
2022/12/12 09:55:50;;;;;;;45.00;20.80;;;;;;;-2.00;100.00;101426.63;5019429;28;20044;-73
2022/12/12 09:58:21;;;;;;;47.13;21.42;;;;;;;-2.00;100.00;101427.50;5002008;28;20144;-74
2022/12/12 10:01:03;;;;;;;42.60;20.08;;;;;;;-1.89;100.00;101419.56;5015941;28;20021;-72
2022/12/12 10:03:44;;;;;;;40.88;20.10;;;;;;;-1.88;100.00;101432.03;5023857;28;20021;-73
2022/12/12 10:06:11;;;;;;;43.15;20.73;;;;;;;-1.83;100.00;101432.56;5019742;28;20112;-72
2022/12/12 10:09:08;;;;;;;42.42;20.42;;;;;;;-1.71;100.00;101431.72;5023786;28;20113;-72
2022/12/12 10:11:54;;;;;;;46.38;22.50;;;;;;;-1.63;100.00;101429.38;4991083;28;20057;-73
2022/12/12 10:14:57;;;;;;;46.45;20.60;;;;;;;-1.58;100.00;101435.31;5020549;28;20620;-73
2022/12/12 10:17:28;;;;;;;49.35;21.38;;;;;;;-1.53;100.00;101427.78;5018326;28;20068;-73
2022/12/12 10:19:58;;;;;;;50.65;20.33;;;;;;;-1.45;100.00;101419.19;5014610;28;20022;-72
2022/12/12 10:22:39;;;;;;;45.25;21.45;;;;;;;-1.44;100.00;101420.91;5021879;28;20025;-73
2022/12/12 10:25:34;;;;;;;40.10;20.10;;;;;;;-1.36;100.00;101414.03;5020027;28;20064;-73
2022/12/12 10:28:09;;;;;;;45.17;21.17;;;;;;;-1.30;100.00;101408.22;5019985;28;20558;-72
2022/12/12 10:30:54;;;;;;;37.70;19.48;;;;;;;-1.25;100.00;101402.50;5018646;28;20029;-73
2022/12/12 10:33:41;;;;;;;43.00;21.10;;;;;;;-1.15;100.00;101401.75;5018985;28;20018;-72
2022/12/12 10:36:12;;;;;;;41.87;19.37;;;;;;;-1.10;100.00;101405.00;5016548;28;20030;-73
2022/12/12 10:39:03;;;;;;;40.53;18.52;;;;;;;-0.95;100.00;101390.44;5017832;28;20022;-74
2022/12/12 10:41:37;;;;;;;47.17;20.63;;;;;;;-0.87;100.00;101397.97;5022622;28;20048;-73
2022/12/12 10:44:26;;;;;;;37.80;19.90;;;;;;;-0.83;100.00;101396.75;5024083;28;20030;-73
2022/12/12 10:47:08;;;;;;;41.75;20.65;;;;;;;-0.64;98.60;101395.31;5015372;28;20053;-72
2022/12/12 10:49:34;;;;;;;45.60;20.77;;;;;;;-0.52;97.85;101397.94;5017336;28;20033;-72
2022/12/12 10:52:04;;;;;;;47.58;21.63;;;;;;;-0.42;98.06;101395.44;5016478;28;20090;-72
2022/12/12 10:54:35;;;;;;;41.08;20.05;;;;;;;-0.40;98.04;101393.47;5015853;28;20052;-73
2022/12/12 10:57:23;;;;;;;41.83;21.08;;;;;;;-0.38;98.59;101393.38;5015412;28;20026;-73
2022/12/12 10:59:51;;;;;;;42.55;19.00;;;;;;;-0.40;98.07;101396.16;5016576;28;20018;-72
2022/12/12 11:02:39;;;;;;;38.00;20.35;;;;;;;-0.29;98.09;101390.84;5016327;28;20068;-72
2022/12/12 11:05:04;;;;;;;35.95;19.38;;;;;;;-0.23;97.64;101389.53;5014474;28;20032;-74
2022/12/12 11:07:38;;;;;;;41.35;20.48;;;;;;;-0.26;96.68;101387.94;5016804;28;20045;-73
2022/12/12 11:10:20;;;;;;;37.83;19.75;;;;;;;-0.10;95.94;101381.25;5018599;28;20040;-73
2022/12/12 11:12:45;;;;;;;35.70;18.13;;;;;;;-0.05;96.18;101387.16;5020102;28;20078;-72
2022/12/12 11:15:16;;;;;;;37.03;19.02;;;;;;;0.17;94.46;101387.22;5015629;28;20049;-73
2022/12/12 11:17:41;;;;;;;41.50;18.58;;;;;;;0.22;95.36;101389.56;5020528;28;20029;-73
2022/12/12 11:20:16;;;;;;;41.55;19.02;;;;;;;0.07;94.29;101382.66;5017226;28;20033;-73
2022/12/12 11:22:42;;;;;;;55.63;17.95;;;;;;;0.18;95.08;101394.31;5016502;28;20061;-73
2022/12/12 11:25:24;;;;;;;32.15;16.60;;;;;;;0.25;93.33;101387.50;5015603;28;20064;-73
2022/12/12 11:27:51;;;;;;;37.55;18.63;;;;;;;0.34;93.78;101388.63;5019254;28;20123;-71
2022/12/12 11:30:38;;;;;;;41.88;20.20;;;;;;;0.35;93.76;101382.25;5021549;28;20033;-74
2022/12/12 11:33:07;;;;;;;38.55;19.23;;;;;;;0.46;93.64;101387.66;5015998;28;20113;-73
2022/12/12 11:35:36;;;;;;;36.33;18.33;;;;;;;0.51;92.18;101386.34;5015615;28;20525;-73
2022/12/12 11:38:07;;;;;;;38.20;18.70;;;;;;;0.56;91.94;101380.56;5021151;28;20029;-72